アリススプリングス の空港の天気 - METARとTAF

アリス・スプリングス空港 ( YBAS / ASP ) - オーストラリア ノーザンテリトリーアリススプリングス
飛行場実況気象(Metar)
観測時間01/20 10:30 ACST (01/20 01:00 UTC)
風向・風速西北西 8m/s
視程10km以上
天気現象
全天の8割程度の雲 雲底高度 1220m
気温33℃
湿度46%
気圧1009hPa
METARYBAS 200100Z 30015KT 9999 BKN040 33/20 Q1009
過去の天気等 Google飛行場航空写真 Wunderground天気予報

過去48時間のMETAR

飛行場予報(TAF)
発表時間: 1/20 09:23 ACST (1/19 23:53 UTC)
予報対象時間: 20日9時 ACST ~ 21日9時 ACST
風向・風速北北西 7m/s
視程10km以上
全天の4割程度の雲 雲底高度 1,220m
20日11時 ACST から
風向・風速北西 4m/s
視程10km以上
なし
TAF YBAS 192353Z 2000/2024 33014KT 9999 SCT040
FM200200 31008KT CAVOK